createdAt,value
2019-04-09T00:00:02.084Z,7.46
2019-04-09T00:01:01.774Z,7.47
2019-04-09T00:02:01.443Z,7.46
2019-04-09T00:03:01.068Z,7.47
2019-04-09T00:04:00.996Z,7.40
2019-04-09T00:05:02.067Z,7.43
2019-04-09T00:06:01.074Z,7.40
2019-04-09T00:07:01.847Z,7.37
2019-04-09T00:08:04.219Z,7.51
2019-04-09T00:09:01.052Z,7.37
2019-04-09T00:10:01.696Z,7.31
2019-04-09T00:11:01.614Z,7.46
2019-04-09T00:12:01.100Z,7.43
2019-04-09T00:13:01.056Z,7.46
2019-04-09T00:14:01.698Z,7.46
2019-04-09T00:15:01.054Z,7.51
2019-04-09T00:16:01.174Z,7.56
2019-04-09T00:17:01.731Z,7.50
2019-04-09T00:18:01.645Z,7.46
2019-04-09T00:19:01.118Z,7.48
2019-04-09T00:20:01.190Z,7.56
2019-04-09T00:21:01.914Z,7.55
2019-04-09T00:22:01.863Z,7.59
2019-04-09T00:23:01.726Z,7.43
2019-04-09T00:24:01.110Z,7.40
2019-04-09T00:25:01.897Z,7.61
2019-04-09T00:26:01.650Z,7.64
2019-04-09T00:27:01.603Z,7.53
2019-04-09T00:28:01.424Z,7.64
2019-04-09T00:29:02.087Z,7.56
2019-04-09T00:30:01.104Z,7.55
2019-04-09T00:31:02.970Z,7.51
2019-04-09T00:32:01.444Z,7.53
2019-04-09T00:33:01.453Z,7.56
2019-04-09T00:34:01.137Z,7.55
2019-04-09T00:35:01.189Z,7.67
2019-04-09T00:36:01.297Z,7.62
2019-04-09T00:37:01.184Z,7.64
2019-04-09T00:38:01.147Z,7.55
2019-04-09T00:39:01.627Z,7.46
2019-04-09T00:40:01.663Z,7.40
2019-04-09T00:41:01.182Z,7.44
2019-04-09T00:42:01.180Z,7.40
2019-04-09T00:43:01.185Z,7.39
2019-04-09T00:44:01.187Z,7.48
2019-04-09T00:45:01.792Z,7.47
2019-04-09T00:46:01.207Z,7.47
2019-04-09T00:47:01.850Z,7.43
2019-04-09T00:48:01.216Z,7.33
2019-04-09T00:49:01.179Z,7.50
2019-04-09T00:50:01.269Z,7.47
2019-04-09T00:51:01.254Z,7.47
2019-04-09T00:52:01.901Z,7.39
2019-04-09T00:53:01.215Z,7.36
2019-04-09T00:54:01.224Z,7.25
2019-04-09T00:55:02.174Z,7.31
2019-04-09T00:56:02.151Z,7.43
2019-04-09T00:57:05.882Z,7.47
2019-04-09T00:58:01.483Z,7.41
2019-04-09T00:59:01.375Z,7.50
2019-04-09T01:00:01.312Z,7.48
2019-04-09T01:01:01.459Z,7.43
2019-04-09T01:02:01.305Z,7.48
2019-04-09T01:03:01.374Z,7.41
2019-04-09T01:04:01.373Z,7.58
2019-04-09T01:05:01.252Z,7.53
2019-04-09T01:06:01.279Z,7.61
2019-04-09T01:07:01.293Z,7.51
2019-04-09T01:08:01.288Z,7.50
2019-04-09T01:09:01.377Z,7.41
2019-04-09T01:10:01.884Z,7.46
2019-04-09T01:11:01.284Z,7.47
2019-04-09T01:12:01.680Z,7.40
2019-04-09T01:13:02.155Z,7.36
2019-04-09T01:14:01.292Z,7.41
2019-04-09T01:15:02.463Z,7.50
2019-04-09T01:16:01.816Z,7.25
2019-04-09T01:17:01.328Z,7.36
2019-04-09T01:18:01.361Z,7.25
2019-04-09T01:19:09.715Z,7.32
2019-04-09T01:20:01.313Z,7.23
2019-04-09T01:21:01.314Z,7.36
2019-04-09T01:22:01.848Z,7.37
2019-04-09T01:23:01.844Z,7.25
2019-04-09T01:24:01.366Z,7.21
2019-04-09T01:25:01.340Z,7.26
2019-04-09T01:26:01.948Z,7.28
2019-04-09T01:27:12.291Z,7.19
2019-04-09T01:28:02.101Z,7.05
2019-04-09T01:29:01.962Z,7.11
2019-04-09T01:30:01.355Z,6.97
2019-04-09T01:31:01.396Z,7.00
2019-04-09T01:32:02.244Z,6.96
2019-04-09T01:33:02.203Z,7.05
2019-04-09T01:34:01.411Z,6.96
2019-04-09T01:35:01.467Z,6.96
2019-04-09T01:36:01.986Z,7.05
2019-04-09T01:37:01.405Z,6.96
2019-04-09T01:38:01.950Z,6.95
2019-04-09T01:39:01.423Z,6.89
2019-04-09T01:40:01.437Z,6.93
2019-04-09T01:41:02.229Z,6.90
2019-04-09T01:42:02.460Z,6.82
2019-04-09T01:43:02.161Z,6.64
2019-04-09T01:44:01.415Z,6.60
2019-04-09T01:45:01.466Z,6.89
2019-04-09T01:46:01.995Z,6.93
2019-04-09T01:47:02.002Z,7.00
2019-04-09T01:48:01.437Z,6.92
2019-04-09T01:49:01.435Z,6.89
2019-04-09T01:50:01.507Z,6.93
2019-04-09T01:51:02.166Z,6.96
2019-04-09T01:52:02.135Z,6.83
2019-04-09T01:53:01.439Z,6.74
2019-04-09T01:54:01.486Z,6.80
2019-04-09T01:55:02.443Z,6.77
2019-04-09T01:56:02.334Z,6.90
2019-04-09T01:57:01.494Z,6.92
2019-04-09T01:58:01.475Z,6.83
2019-04-09T01:59:02.016Z,6.71
2019-04-09T02:00:01.485Z,6.75
2019-04-09T02:01:01.569Z,6.68
2019-04-09T02:02:02.561Z,6.78
2019-04-09T02:03:02.479Z,6.62
2019-04-09T02:04:02.370Z,6.56
2019-04-09T02:05:01.497Z,6.53
2019-04-09T02:06:02.530Z,6.57
2019-04-09T02:07:01.729Z,6.56
2019-04-09T02:08:01.629Z,6.74
2019-04-09T02:09:01.523Z,6.72
2019-04-09T02:10:02.543Z,6.75
2019-04-09T02:11:01.513Z,6.74
2019-04-09T02:12:01.942Z,6.74
2019-04-09T02:13:01.730Z,6.78
2019-04-09T02:14:01.547Z,6.72
2019-04-09T02:15:01.538Z,6.64
2019-04-09T02:16:01.817Z,6.41
2019-04-09T02:17:01.762Z,6.67
2019-04-09T02:18:01.575Z,6.53
2019-04-09T02:19:01.642Z,6.54
2019-04-09T02:20:01.581Z,6.62
2019-04-09T02:21:01.554Z,6.59
2019-04-09T02:22:01.810Z,6.68
2019-04-09T02:23:01.586Z,6.43
2019-04-09T02:24:01.588Z,6.44
2019-04-09T02:25:01.591Z,6.59
2019-04-09T02:26:01.904Z,6.56
2019-04-09T02:27:01.710Z,6.54
2019-04-09T02:28:02.467Z,6.56
2019-04-09T02:29:02.424Z,6.53
2019-04-09T02:30:01.590Z,6.47
2019-04-09T02:31:02.198Z,6.50
2019-04-09T02:32:01.940Z,6.49
2019-04-09T02:33:01.632Z,6.44
2019-04-09T02:34:02.802Z,6.44
2019-04-09T02:35:02.766Z,6.44
2019-04-09T02:36:01.801Z,6.29
2019-04-09T02:37:02.098Z,6.34
2019-04-09T02:38:01.680Z,6.26
2019-04-09T02:39:01.644Z,6.31
2019-04-09T02:40:01.651Z,6.38
2019-04-09T02:41:01.641Z,6.17
2019-04-09T02:42:02.116Z,6.38
2019-04-09T02:43:01.951Z,6.25
2019-04-09T02:44:02.680Z,6.20
2019-04-09T02:45:01.663Z,6.32
2019-04-09T02:46:01.901Z,6.38
2019-04-09T02:47:01.664Z,6.41
2019-04-09T02:48:01.673Z,6.53
2019-04-09T02:49:01.914Z,6.50
2019-04-09T02:50:01.966Z,6.41
2019-04-09T02:51:01.794Z,6.43
2019-04-09T02:52:01.673Z,6.38
2019-04-09T02:53:02.703Z,6.53
2019-04-09T02:54:02.709Z,6.43
2019-04-09T02:55:02.569Z,6.53
2019-04-09T02:56:01.686Z,6.50
2019-04-09T02:57:01.674Z,6.47
2019-04-09T02:58:02.933Z,6.53
2019-04-09T02:59:01.727Z,6.59
2019-04-09T03:00:01.770Z,6.65
2019-04-09T03:01:02.406Z,6.60
2019-04-09T03:02:01.712Z,6.47
2019-04-09T03:03:01.705Z,6.53
2019-04-09T03:04:01.715Z,6.62
2019-04-09T03:05:02.059Z,6.53
2019-04-09T03:06:01.724Z,6.57
2019-04-09T03:07:01.786Z,6.68
2019-04-09T03:08:02.214Z,6.64
2019-04-09T03:09:02.005Z,6.71
2019-04-09T03:10:01.980Z,6.71
2019-04-09T03:11:01.742Z,6.74
2019-04-09T03:12:02.682Z,6.74
2019-04-09T03:13:01.754Z,6.74
2019-04-09T03:14:01.794Z,6.65
2019-04-09T03:15:01.789Z,6.60
2019-04-09T03:16:02.684Z,6.52
2019-04-09T03:17:01.774Z,6.50
2019-04-09T03:18:01.765Z,6.64
2019-04-09T03:19:03.136Z,6.65
2019-04-09T03:20:01.779Z,6.57
2019-04-09T03:21:01.797Z,6.70
2019-04-09T03:22:02.456Z,6.77
2019-04-09T03:23:02.506Z,6.75
2019-04-09T03:24:02.227Z,6.64
2019-04-09T03:25:01.819Z,6.64
2019-04-09T03:26:01.862Z,6.65
2019-04-09T03:27:01.809Z,6.47
2019-04-09T03:28:06.303Z,6.46
2019-04-09T03:29:02.011Z,6.53
2019-04-09T03:30:01.808Z,6.60
2019-04-09T03:31:03.901Z,6.65
2019-04-09T03:32:03.703Z,6.49
2019-04-09T03:33:02.560Z,6.54
2019-04-09T03:34:03.718Z,6.54
2019-04-09T03:35:01.995Z,6.52
2019-04-09T03:36:02.744Z,6.54
2019-04-09T03:37:01.945Z,6.62
2019-04-09T03:38:01.862Z,6.57
2019-04-09T03:39:02.868Z,6.54
2019-04-09T03:40:02.823Z,6.57
2019-04-09T03:41:02.492Z,6.53
2019-04-09T03:42:01.863Z,6.60
2019-04-09T03:43:01.873Z,6.60
2019-04-09T03:44:02.492Z,6.52
2019-04-09T03:45:02.520Z,6.49
2019-04-09T03:46:01.879Z,6.59
2019-04-09T03:47:01.869Z,6.47
2019-04-09T03:48:01.917Z,6.46
2019-04-09T03:49:01.891Z,6.52
2019-04-09T03:50:01.914Z,6.57
2019-04-09T03:51:02.266Z,6.56
2019-04-09T03:52:02.329Z,6.53
2019-04-09T03:53:01.901Z,6.44
2019-04-09T03:54:01.931Z,6.34
2019-04-09T03:55:02.000Z,6.46
2019-04-09T03:56:02.886Z,6.36
2019-04-09T03:57:01.899Z,6.25
2019-04-09T03:58:13.099Z,6.41
2019-04-09T03:59:02.474Z,6.46
2019-04-09T04:00:02.603Z,6.50
2019-04-09T04:01:01.951Z,6.38
2019-04-09T04:02:01.921Z,6.35
2019-04-09T04:03:02.979Z,6.43
2019-04-09T04:04:01.956Z,6.39
2019-04-09T04:05:01.931Z,6.36
2019-04-09T04:06:01.943Z,6.22
2019-04-09T04:07:01.946Z,6.32
2019-04-09T04:08:02.005Z,6.06
2019-04-09T04:09:02.464Z,6.15
2019-04-09T04:10:02.023Z,6.13
2019-04-09T04:11:02.873Z,5.99
2019-04-09T04:12:01.959Z,6.22
2019-04-09T04:13:02.038Z,5.99
2019-04-09T04:14:02.125Z,6.01
2019-04-09T04:15:02.053Z,6.01
2019-04-09T04:16:01.981Z,6.15
2019-04-09T04:17:01.975Z,6.19
2019-04-09T04:18:02.989Z,6.16
2019-04-09T04:19:03.036Z,6.26
2019-04-09T04:20:02.012Z,6.13
2019-04-09T04:21:02.289Z,6.20
2019-04-09T04:22:02.321Z,6.01
2019-04-09T04:23:02.468Z,6.19
2019-04-09T04:24:02.006Z,6.13
2019-04-09T04:25:02.054Z,6.16
2019-04-09T04:26:02.011Z,6.12
2019-04-09T04:27:02.049Z,6.19
2019-04-09T04:28:02.918Z,6.19
2019-04-09T04:29:02.062Z,6.29
2019-04-09T04:30:02.320Z,6.20
2019-04-09T04:31:02.037Z,6.13
2019-04-09T04:32:02.662Z,6.05
2019-04-09T04:33:02.541Z,6.06
2019-04-09T04:34:02.033Z,6.12
2019-04-09T04:35:02.062Z,6.16
2019-04-09T04:36:02.286Z,6.13
2019-04-09T04:37:02.187Z,6.02
2019-04-09T04:38:02.975Z,6.02
2019-04-09T04:39:02.057Z,6.16
2019-04-09T04:40:02.093Z,6.17
2019-04-09T04:41:02.081Z,6.09
2019-04-09T04:42:03.166Z,6.15
2019-04-09T04:43:02.711Z,6.09
2019-04-09T04:44:02.064Z,6.05
2019-04-09T04:45:02.093Z,6.20
2019-04-09T04:46:02.623Z,6.28
2019-04-09T04:47:02.077Z,6.15
2019-04-09T04:48:02.656Z,6.20
2019-04-09T04:49:02.701Z,6.10
2019-04-09T04:50:02.369Z,6.10
2019-04-09T04:51:02.185Z,6.13
2019-04-09T04:52:02.174Z,6.13
2019-04-09T04:53:02.172Z,6.17
2019-04-09T04:54:02.162Z,6.38
2019-04-09T04:55:02.354Z,6.36
2019-04-09T04:56:02.158Z,6.44
2019-04-09T04:57:02.145Z,6.22
2019-04-09T04:58:02.185Z,6.31
2019-04-09T04:59:02.559Z,6.29
2019-04-09T05:00:02.174Z,6.36
2019-04-09T05:01:05.952Z,6.17
2019-04-09T05:02:02.567Z,6.38
2019-04-09T05:03:02.143Z,6.26
2019-04-09T05:04:02.860Z,6.32
2019-04-09T05:05:02.564Z,6.20
2019-04-09T05:06:03.122Z,6.19
2019-04-09T05:07:03.431Z,6.28
2019-04-09T05:08:02.185Z,6.38
2019-04-09T05:09:02.146Z,6.41
2019-04-09T05:10:02.164Z,6.36
2019-04-09T05:11:02.224Z,6.38
2019-04-09T05:12:02.194Z,6.32
2019-04-09T05:13:02.195Z,6.25
2019-04-09T05:14:03.262Z,6.32
2019-04-09T05:15:02.221Z,6.39
2019-04-09T05:16:02.191Z,6.20
2019-04-09T05:17:02.378Z,6.13
2019-04-09T05:18:02.885Z,6.25
2019-04-09T05:19:02.202Z,6.25
2019-04-09T05:20:02.820Z,6.41
2019-04-09T05:21:02.199Z,6.35
2019-04-09T05:22:02.333Z,6.32
2019-04-09T05:23:03.279Z,6.39
2019-04-09T05:24:02.497Z,6.44
2019-04-09T05:25:02.933Z,6.35
2019-04-09T05:26:02.222Z,6.46
2019-04-09T05:27:02.218Z,6.47
2019-04-09T05:28:02.552Z,6.53
2019-04-09T05:29:04.782Z,6.57
2019-04-09T05:30:02.642Z,6.60
2019-04-09T05:31:02.902Z,6.62
2019-04-09T05:32:03.331Z,6.64
2019-04-09T05:33:03.458Z,6.59
2019-04-09T05:34:02.279Z,6.80
2019-04-09T05:35:03.899Z,6.90
2019-04-09T05:36:03.326Z,6.87
2019-04-09T05:37:02.417Z,7.05
2019-04-09T05:38:03.063Z,7.01
2019-04-09T05:39:02.873Z,7.11
2019-04-09T05:40:02.572Z,7.08
2019-04-09T05:41:03.448Z,6.93
2019-04-09T05:42:02.644Z,7.03
2019-04-09T05:43:02.391Z,7.13
2019-04-09T05:44:02.851Z,7.23
2019-04-09T05:45:02.419Z,7.13
2019-04-09T05:46:03.522Z,7.28
2019-04-09T05:47:02.478Z,7.32
2019-04-09T05:48:03.225Z,7.28
2019-04-09T05:49:03.369Z,7.26
2019-04-09T05:50:02.780Z,7.36
2019-04-09T05:51:02.664Z,7.29
2019-04-09T05:52:02.421Z,7.41
2019-04-09T05:53:02.615Z,7.37
2019-04-09T05:54:02.975Z,7.28
2019-04-09T05:55:02.466Z,7.31
2019-04-09T05:56:03.332Z,7.31
2019-04-09T05:57:02.567Z,7.19
2019-04-09T05:58:03.670Z,7.46
2019-04-09T05:59:08.284Z,7.43
2019-04-09T06:00:02.552Z,7.46
2019-04-09T06:01:02.380Z,7.58
2019-04-09T06:02:03.133Z,7.50
2019-04-09T06:03:03.917Z,7.43
2019-04-09T06:04:03.276Z,7.43
2019-04-09T06:05:02.738Z,7.29
2019-04-09T06:06:03.329Z,7.28
2019-04-09T06:07:02.773Z,7.22
2019-04-09T06:08:02.574Z,7.32
2019-04-09T06:09:02.519Z,7.41
2019-04-09T06:10:02.528Z,7.53
2019-04-09T06:11:03.333Z,7.66
2019-04-09T06:12:02.485Z,7.64
2019-04-09T06:13:02.995Z,7.58
2019-04-09T06:14:02.429Z,7.67
2019-04-09T06:15:02.457Z,7.66
2019-04-09T06:16:02.430Z,7.77
2019-04-09T06:17:03.088Z,7.75
2019-04-09T06:18:02.445Z,7.53
2019-04-09T06:19:03.661Z,7.67
2019-04-09T06:20:02.459Z,7.70
2019-04-09T06:21:03.177Z,7.74
2019-04-09T06:22:03.227Z,7.72
2019-04-09T06:23:02.596Z,7.72
2019-04-09T06:24:02.653Z,7.87
2019-04-09T06:25:04.261Z,7.88
2019-04-09T06:26:02.501Z,7.96
2019-04-09T06:27:02.608Z,7.80
2019-04-09T06:28:02.516Z,7.80
2019-04-09T06:29:14.387Z,7.88
2019-04-09T06:30:02.892Z,7.98
2019-04-09T06:31:02.509Z,7.85
2019-04-09T06:32:02.706Z,7.81
2019-04-09T06:33:02.538Z,7.85
2019-04-09T06:34:02.561Z,7.95
2019-04-09T06:35:03.402Z,8.03
2019-04-09T06:36:02.545Z,7.93
2019-04-09T06:37:02.599Z,7.99
2019-04-09T06:38:02.840Z,8.02
2019-04-09T06:39:02.565Z,7.91
2019-04-09T06:40:03.447Z,7.90
2019-04-09T06:41:03.385Z,7.93
2019-04-09T06:42:02.658Z,7.95
2019-04-09T06:43:03.772Z,8.02
2019-04-09T06:44:02.676Z,8.09
2019-04-09T06:45:03.644Z,7.70
2019-04-09T06:46:03.281Z,7.81
2019-04-09T06:47:02.618Z,7.91
2019-04-09T06:48:02.644Z,8.03
2019-04-09T06:49:02.596Z,8.02
2019-04-09T06:50:03.305Z,8.11
2019-04-09T06:51:02.620Z,7.85
2019-04-09T06:52:02.739Z,7.95
2019-04-09T06:53:02.642Z,7.87
2019-04-09T06:54:02.633Z,7.96
2019-04-09T06:55:08.023Z,8.06
2019-04-09T06:56:03.090Z,7.95
2019-04-09T06:57:03.271Z,7.96
2019-04-09T06:58:04.739Z,7.93
2019-04-09T06:59:03.004Z,7.84
2019-04-09T07:00:03.242Z,7.96
2019-04-09T07:01:02.684Z,7.84
2019-04-09T07:02:03.672Z,7.59
2019-04-09T07:03:02.911Z,7.67
2019-04-09T07:04:03.435Z,7.64
2019-04-09T07:05:02.676Z,7.56
2019-04-09T07:06:02.665Z,7.55
2019-04-09T07:07:02.657Z,7.33
2019-04-09T07:08:03.504Z,7.33
2019-04-09T07:09:02.685Z,7.39
2019-04-09T07:10:03.549Z,7.22
2019-04-09T07:11:12.592Z,7.32
2019-04-09T07:12:02.818Z,7.50
2019-04-09T07:13:03.072Z,7.67
2019-04-09T07:14:02.698Z,7.67
2019-04-09T07:15:03.077Z,7.72
2019-04-09T07:16:03.375Z,7.64
2019-04-09T07:17:02.724Z,7.69
2019-04-09T07:18:02.890Z,7.55
2019-04-09T07:19:02.730Z,7.62
2019-04-09T07:20:02.736Z,7.74
2019-04-09T07:21:03.537Z,7.80
2019-04-09T07:22:02.760Z,7.66
2019-04-09T07:23:03.657Z,7.53
2019-04-09T07:24:02.820Z,7.48
2019-04-09T07:25:03.656Z,7.50
2019-04-09T07:26:04.890Z,7.44
2019-04-09T07:27:03.572Z,7.53
2019-04-09T07:28:02.768Z,7.41
2019-04-09T07:29:03.776Z,7.62
2019-04-09T07:30:09.773Z,7.74
2019-04-09T07:31:04.592Z,7.77
2019-04-09T07:32:03.983Z,7.95
2019-04-09T07:33:09.929Z,7.93
2019-04-09T07:34:03.570Z,7.90
2019-04-09T07:35:02.820Z,7.93
2019-04-09T07:36:05.783Z,7.90
2019-04-09T07:37:02.787Z,7.88
2019-04-09T07:38:03.604Z,7.72
2019-04-09T07:39:03.894Z,7.85
2019-04-09T07:40:03.973Z,7.98
2019-04-09T07:41:06.180Z,7.90
2019-04-09T07:42:02.823Z,7.91
2019-04-09T07:43:05.215Z,7.88
2019-04-09T07:44:04.260Z,7.84
2019-04-09T07:45:08.125Z,7.85
2019-04-09T07:46:02.846Z,7.64
2019-04-09T07:47:02.915Z,7.75
2019-04-09T07:48:03.042Z,7.66
2019-04-09T07:49:03.805Z,7.78
2019-04-09T07:50:07.188Z,7.70
2019-04-09T07:51:02.913Z,7.93
2019-04-09T07:52:03.124Z,7.78
2019-04-09T07:53:02.899Z,7.75
2019-04-09T07:54:04.846Z,7.83
2019-04-09T07:55:02.910Z,8.01
2019-04-09T07:56:03.049Z,7.91
2019-04-09T07:57:04.355Z,8.03
2019-04-09T07:58:06.821Z,8.17
2019-04-09T07:59:03.317Z,8.05
2019-04-09T08:00:12.294Z,8.01
2019-04-09T08:01:02.892Z,8.06
2019-04-09T08:02:02.950Z,8.17
2019-04-09T08:03:02.932Z,8.24
2019-04-09T08:04:06.057Z,8.06
2019-04-09T08:05:03.030Z,8.21
2019-04-09T08:06:02.933Z,8.23
2019-04-09T08:07:05.127Z,8.27
2019-04-09T08:08:03.785Z,8.27
2019-04-09T08:09:02.934Z,8.27
2019-04-09T08:10:03.919Z,8.28
2019-04-09T08:11:04.559Z,8.18
2019-04-09T08:12:02.959Z,8.11
2019-04-09T08:13:03.522Z,8.13
2019-04-09T08:14:03.863Z,8.17
2019-04-09T08:15:04.395Z,8.21
2019-04-09T08:16:06.362Z,8.21
2019-04-09T08:17:02.984Z,8.16
2019-04-09T08:18:08.895Z,8.11
2019-04-09T08:19:03.902Z,7.87
2019-04-09T08:20:03.313Z,8.11
2019-04-09T16:53:22.806Z,11.05
2019-04-09T16:54:21.504Z,11.01
2019-04-09T16:55:22.033Z,11.01
2019-04-09T16:56:21.536Z,10.97
2019-04-09T16:57:21.518Z,10.92
2019-04-09T16:58:21.514Z,10.83
2019-04-09T16:59:21.952Z,10.95
2019-04-09T17:00:24.197Z,10.87
2019-04-09T17:01:21.519Z,11.01
2019-04-09T17:02:24.165Z,10.97
2019-04-09T17:03:36.599Z,10.97
2019-04-09T17:04:25.525Z,10.92
2019-04-09T17:05:22.202Z,10.90
2019-04-09T17:06:22.561Z,10.98
2019-04-09T17:07:21.864Z,11.00
2019-04-09T17:08:21.563Z,11.04
2019-04-09T17:09:29.489Z,10.95
2019-04-09T17:10:22.677Z,10.89
2019-04-09T17:11:21.935Z,10.89
2019-04-09T17:12:22.123Z,10.84
2019-04-09T17:13:22.459Z,10.83
2019-04-09T17:14:21.773Z,10.76
2019-04-09T17:15:21.723Z,10.92
2019-04-09T17:16:22.432Z,10.83
2019-04-09T17:17:21.664Z,10.87
2019-04-09T17:18:21.581Z,10.87
2019-04-09T17:19:21.849Z,10.79
2019-04-09T17:20:21.853Z,10.86
2019-04-09T17:21:21.590Z,10.90
2019-04-09T17:22:21.585Z,10.86
2019-04-09T17:23:21.598Z,10.92
2019-04-09T17:24:21.605Z,11.00
2019-04-09T17:25:21.713Z,10.89
2019-04-09T17:26:22.215Z,10.84
2019-04-09T17:27:21.624Z,10.79
2019-04-09T17:28:21.735Z,10.69
2019-04-09T17:29:21.633Z,10.75
2019-04-09T17:30:21.840Z,10.86
2019-04-09T17:31:23.625Z,10.69
2019-04-09T17:32:21.663Z,10.75
2019-04-09T17:33:21.684Z,10.67
2019-04-09T17:34:27.561Z,10.62
2019-04-09T17:35:22.663Z,10.75
2019-04-09T17:36:21.697Z,10.68
2019-04-09T17:37:21.730Z,10.65
2019-04-09T17:38:21.892Z,10.68
2019-04-09T17:39:21.934Z,10.61
2019-04-09T17:40:21.694Z,10.64
2019-04-09T17:41:22.714Z,10.46
2019-04-09T17:42:21.837Z,10.45
2019-04-09T17:43:21.977Z,10.57
2019-04-09T17:44:21.714Z,10.51
2019-04-09T17:45:22.238Z,10.42
2019-04-09T17:46:21.815Z,10.51
2019-04-09T17:47:21.742Z,10.43
2019-04-09T17:48:22.211Z,10.34
2019-04-09T17:49:22.661Z,10.27
2019-04-09T17:50:22.195Z,10.25
2019-04-09T17:51:22.714Z,10.21
2019-04-09T17:52:22.070Z,10.20
2019-04-09T17:53:21.762Z,10.23
2019-04-09T17:54:21.765Z,10.21
2019-04-09T17:55:21.774Z,10.10
2019-04-09T17:56:21.844Z,10.07
2019-04-09T17:57:21.975Z,10.17
2019-04-09T17:58:22.707Z,10.15
2019-04-09T17:59:22.855Z,10.05
2019-04-09T18:00:22.324Z,10.03
2019-04-09T18:01:21.801Z,10.03
2019-04-09T18:02:22.351Z,10.15
2019-04-09T18:03:22.876Z,10.02
2019-04-09T18:04:22.175Z,9.95
2019-04-09T18:05:22.947Z,9.97
2019-04-09T18:06:23.460Z,9.97
2019-04-09T18:07:22.227Z,9.85
2019-04-09T18:08:22.221Z,9.84
2019-04-09T18:09:22.581Z,9.77
2019-04-09T18:10:22.346Z,9.80
2019-04-09T18:11:21.834Z,9.76
2019-04-09T18:12:22.999Z,9.80
2019-04-09T18:13:21.843Z,9.80
2019-04-09T18:14:22.680Z,9.69
2019-04-09T18:15:21.849Z,9.76
2019-04-09T18:16:22.427Z,9.63
2019-04-09T18:17:22.923Z,9.56
2019-04-09T18:18:23.126Z,9.58
2019-04-09T18:19:23.126Z,9.70
2019-04-09T18:20:21.885Z,9.55
2019-04-09T18:21:22.613Z,9.70
2019-04-09T18:22:23.081Z,9.63
2019-04-09T18:23:22.237Z,9.56
2019-04-09T18:24:25.984Z,9.47
2019-04-09T18:25:21.981Z,9.49
2019-04-09T18:26:22.874Z,9.49
2019-04-09T18:27:21.915Z,9.52
2019-04-09T18:28:22.404Z,9.52
2019-04-09T18:29:22.938Z,9.51
2019-04-09T18:30:22.354Z,9.34
2019-04-09T18:31:29.999Z,9.44
2019-04-09T18:32:21.920Z,9.30
2019-04-09T18:33:22.553Z,9.45
2019-04-09T18:34:21.960Z,9.37
2019-04-09T18:35:21.940Z,9.29
2019-04-09T18:36:23.017Z,9.37
2019-04-09T18:37:21.980Z,9.36
2019-04-09T18:38:22.969Z,9.30
2019-04-09T18:39:21.994Z,9.26
2019-04-09T18:40:22.719Z,9.22
2019-04-09T18:41:22.119Z,9.30
2019-04-09T18:42:21.997Z,9.31
2019-04-09T18:43:22.351Z,9.22
2019-04-09T18:44:22.469Z,9.29
2019-04-09T18:45:22.299Z,9.19
2019-04-09T18:46:21.998Z,9.11
2019-04-09T18:47:22.117Z,9.24
2019-04-09T18:48:31.874Z,9.21
2019-04-09T18:49:22.052Z,9.16
2019-04-09T18:50:22.367Z,9.13
2019-04-09T18:51:23.541Z,9.19
2019-04-09T18:52:22.206Z,9.13
2019-04-09T18:53:22.852Z,9.18
2019-04-09T18:54:22.073Z,9.13
2019-04-09T18:55:22.047Z,9.03
2019-04-09T18:56:22.286Z,8.96
2019-04-09T18:57:22.044Z,8.99
2019-04-09T18:58:22.852Z,9.09
2019-04-09T18:59:23.121Z,9.08
2019-04-09T19:00:22.127Z,9.12
2019-04-09T19:01:22.729Z,9.15
2019-04-09T19:02:22.917Z,9.11
2019-04-09T19:03:22.098Z,8.99
2019-04-09T19:04:22.183Z,8.93
2019-04-09T19:05:22.097Z,8.86
2019-04-09T19:06:22.129Z,8.92
2019-04-09T19:07:22.138Z,8.96
2019-04-09T19:08:22.813Z,8.89
2019-04-09T19:09:22.274Z,8.97
2019-04-09T19:10:22.951Z,8.93
2019-04-09T19:11:22.118Z,8.89
2019-04-09T19:12:22.594Z,8.93
2019-04-09T19:13:22.840Z,8.89
2019-04-09T19:14:22.117Z,8.92
2019-04-09T19:15:22.139Z,8.93
2019-04-09T19:16:22.257Z,8.97
2019-04-09T19:17:23.166Z,8.75
2019-04-09T19:18:24.232Z,8.75
2019-04-09T19:19:22.448Z,8.75
2019-04-09T19:20:23.530Z,8.81
2019-04-09T19:21:22.762Z,8.72
2019-04-09T19:22:23.073Z,8.89
2019-04-09T19:23:22.662Z,8.72
2019-04-09T19:24:23.356Z,8.72
2019-04-09T19:25:22.252Z,8.71
2019-04-09T19:26:22.186Z,8.68
2019-04-09T19:27:23.336Z,8.66
2019-04-09T19:28:23.269Z,8.71
2019-04-09T19:29:22.471Z,8.72
2019-04-09T19:30:22.683Z,8.63
2019-04-09T19:31:23.158Z,8.59
2019-04-09T19:32:23.083Z,8.60
2019-04-09T19:33:22.282Z,8.60
2019-04-09T19:34:22.258Z,8.57
2019-04-09T19:35:29.049Z,8.63
2019-04-09T19:36:22.227Z,8.53
2019-04-09T19:37:23.152Z,8.59
2019-04-09T19:38:22.972Z,8.59
2019-04-09T19:39:24.439Z,8.61
2019-04-09T19:40:22.431Z,8.61
2019-04-09T19:41:22.296Z,8.68
2019-04-09T19:42:22.290Z,8.54
2019-04-09T19:43:22.301Z,8.45
2019-04-09T19:44:23.162Z,8.52
2019-04-09T19:45:22.480Z,8.45
2019-04-09T19:46:22.598Z,8.42
2019-04-09T19:47:22.290Z,8.46
2019-04-09T19:48:22.347Z,8.41
2019-04-09T19:49:23.188Z,8.27
2019-04-09T19:50:22.332Z,8.39
2019-04-09T19:51:22.313Z,8.49
2019-04-09T19:52:22.963Z,8.49
2019-04-09T19:53:22.319Z,8.42
2019-04-09T19:54:22.539Z,8.39
2019-04-09T19:55:22.334Z,8.39
2019-04-09T19:56:22.803Z,8.45
2019-04-09T19:57:22.379Z,8.35
2019-04-09T19:58:22.465Z,8.28
2019-04-09T19:59:22.339Z,8.23
2019-04-09T20:00:23.394Z,8.27
2019-04-09T20:01:22.486Z,8.20
2019-04-09T20:02:22.796Z,8.17
2019-04-09T20:03:23.199Z,8.17
2019-04-09T20:04:23.225Z,8.24
2019-04-09T20:05:29.916Z,8.21
2019-04-09T20:06:22.366Z,8.28
2019-04-09T20:07:22.552Z,8.24
2019-04-09T20:08:22.998Z,8.20
2019-04-09T20:09:22.348Z,8.23
2019-04-09T20:10:22.503Z,8.26
2019-04-09T20:11:23.415Z,8.18
2019-04-09T20:12:22.911Z,8.13
2019-04-09T20:13:22.378Z,8.06
2019-04-09T20:14:22.373Z,8.16
2019-04-09T20:15:22.657Z,8.16
2019-04-09T20:16:23.324Z,8.14
2019-04-09T20:17:22.392Z,8.21
2019-04-09T20:18:22.403Z,8.14
2019-04-09T20:19:22.736Z,8.16
2019-04-09T20:20:22.538Z,8.06
2019-04-09T20:21:22.421Z,8.08
2019-04-09T20:22:23.289Z,8.08
2019-04-09T20:23:23.737Z,8.06
2019-04-09T20:24:22.689Z,7.91
2019-04-09T20:25:23.793Z,7.95
2019-04-09T20:26:22.422Z,7.95
2019-04-09T20:27:23.588Z,7.95
2019-04-09T20:28:22.644Z,7.99
2019-04-09T20:29:23.602Z,8.06
2019-04-09T20:30:22.455Z,8.13
2019-04-09T20:31:23.148Z,8.06
2019-04-09T20:32:22.456Z,8.01
2019-04-09T20:33:23.329Z,7.98
2019-04-09T20:34:22.466Z,7.95
2019-04-09T20:35:22.525Z,7.98
2019-04-09T20:36:22.547Z,8.02
2019-04-09T20:37:22.478Z,7.91
2019-04-09T20:38:22.819Z,7.85
2019-04-09T20:39:31.681Z,7.78
2019-04-09T20:40:23.685Z,7.84
2019-04-09T20:41:23.642Z,7.87
2019-04-09T20:42:22.670Z,7.90
2019-04-09T20:43:22.593Z,7.87
2019-04-09T20:44:22.540Z,7.91
2019-04-09T20:45:22.624Z,7.98
2019-04-09T20:46:22.606Z,8.02
2019-04-09T20:47:22.621Z,7.93
2019-04-09T20:48:23.543Z,7.99
2019-04-09T20:49:22.536Z,7.95
2019-04-09T20:50:23.566Z,7.99
2019-04-09T20:51:22.544Z,7.87
2019-04-09T20:52:23.518Z,7.98
2019-04-09T20:53:22.556Z,8.03
2019-04-09T20:54:22.658Z,8.01
2019-04-09T20:55:22.539Z,8.01
2019-04-09T20:56:22.697Z,7.98
2019-04-09T20:57:22.587Z,7.95
2019-04-09T20:58:22.587Z,8.01
2019-04-09T20:59:36.753Z,7.93
2019-04-09T21:00:25.920Z,7.88
2019-04-09T21:01:22.913Z,7.75
2019-04-09T21:02:22.659Z,7.72
2019-04-09T21:03:22.843Z,7.83
2019-04-09T21:04:22.970Z,7.75
2019-04-09T21:05:22.745Z,7.80
2019-04-09T21:06:22.606Z,7.85
2019-04-09T21:07:22.621Z,7.83
2019-04-09T21:08:23.018Z,7.81
2019-04-09T21:09:24.296Z,7.74
2019-04-09T21:10:22.901Z,7.84
2019-04-09T21:11:22.630Z,7.78
2019-04-09T21:12:23.452Z,7.84
2019-04-09T21:13:22.854Z,7.88
2019-04-09T21:14:22.634Z,7.84
2019-04-09T21:15:23.972Z,7.88
2019-04-09T21:16:22.753Z,7.85
2019-04-09T21:17:22.662Z,7.77
2019-04-09T21:18:22.828Z,7.70
2019-04-09T21:19:23.000Z,7.75
2019-04-09T21:20:22.683Z,7.59
2019-04-09T21:21:22.906Z,7.56
2019-04-09T21:22:22.734Z,7.56
2019-04-09T21:23:22.714Z,7.70
2019-04-09T21:24:23.539Z,7.70
2019-04-09T21:25:22.694Z,7.62
2019-04-09T21:26:23.072Z,7.43
2019-04-09T21:27:23.415Z,7.44
2019-04-09T21:28:23.514Z,7.46
2019-04-09T21:29:22.697Z,7.40
2019-04-09T21:30:22.704Z,7.51
2019-04-09T21:31:22.671Z,7.47
2019-04-09T21:32:22.695Z,7.53
2019-04-09T21:33:23.653Z,7.48
2019-04-09T21:34:22.711Z,7.40
2019-04-09T21:35:23.527Z,7.44
2019-04-09T21:36:22.883Z,7.41
2019-04-09T21:37:22.708Z,7.41
2019-04-09T21:38:22.732Z,7.28
2019-04-09T21:39:23.069Z,7.44
2019-04-09T21:40:25.314Z,7.22
2019-04-09T21:41:22.711Z,7.18
2019-04-09T21:42:22.728Z,7.23
2019-04-09T21:43:23.525Z,7.26
2019-04-09T21:44:22.813Z,7.31
2019-04-09T21:45:22.733Z,7.32
2019-04-09T21:46:23.570Z,7.31
2019-04-09T21:47:22.755Z,7.40
2019-04-09T21:48:22.751Z,7.29